Impacts METAR Board
IDs:

KDTW - Detroit Metro/Wayne, MI, US

Updated at: 2300 UTC 01 Feb 2023
Potential Impact None Slight Moderate High
Time 01/11Z 01/12Z 01/13Z 01/14Z 01/15Z 01/16Z 01/17Z 01/18Z 01/19Z 01/20Z 01/21Z 01/22Z 01/23Z
Temp8 8 9 10 15 18 20 22 23 24 24 22 20
Dewpt1 2 2 3 6 9 10 10 11 11 8 8 6
Altim30.33 30.33 30.35 30.37 30.37 30.38 30.37 30.34 30.32 30.30 30.28 30.29 30.27
VIS10 10 8 8 10 10 10 10 10 10 10 10 10
CIG80 -- 75 -- -- -- -- -- -- -- -- -- --
CoverBKNSCTOVCSCTCLRFEWFEWFEWFEWFEWFEWFEWFEW
FltCatVFRVFRVFRVFRVFRVFRVFRVFRVFRVFRVFRVFRVFR
WX--------------------------
WDir230230230230230230220230230250230210220
WSpd8 8 8 10 8 10 12 10 15 13 11 13 11
WGst-- -- -- -- -- -- -- -- -- -- -- -- --
Raw hourly METARs
KDTW 011053Z 23008KT 10SM SCT025 BKN080 BKN200 M13/M17 A3033 RMK AO2 SLP283 T11331172
KDTW 011153Z 23008KT 10SM FEW025 SCT080 SCT200 M13/M17 A3033 RMK AO2 SLP285 T11331167 11117 21133 51008
KDTW 011253Z 23008KT 8SM SCT026 BKN075 OVC200 M13/M17 A3035 RMK AO2 SLP290 T11281167
KDTW 011353Z 23010KT 8SM FEW026 SCT200 M12/M16 A3037 RMK AO2 SLP297 T11221161
KDTW 011453Z 23008KT 10SM CLR M09/M14 A3037 RMK AO2 SLP298 T10941144 51013
KDTW 011553Z 23010KT 10SM FEW200 M08/M13 A3038 RMK AO2 SLP298 T10781128
KDTW 011653Z 22012KT 10SM FEW022 FEW200 M07/M12 A3037 RMK AO2 SLP296 T10671122
KDTW 011753Z 23010KT 10SM FEW024 FEW200 M06/M12 A3034 RMK AO2 SLP287 T10561122 11056 21133 58009
KDTW 011853Z 23015KT 10SM FEW026 FEW200 M05/M12 A3032 RMK AO2 SLP281 T10501117
KDTW 011953Z 25013KT 10SM FEW030 M04/M12 A3030 RMK AO2 SLP273 T10441117
KDTW 012053Z 23011KT 10SM FEW250 M04/M13 A3028 RMK AO2 SLP267 T10441133 58020
KDTW 012153Z 21013KT 10SM FEW250 M06/M13 A3029 RMK AO2 SLP268 T10561133
KDTW 012253Z 22011KT 10SM FEW250 M07/M14 A3027 RMK AO2 SLP264 T10671144



Page loaded:  23:08 UTC  |   03:08 PM Pacific  |   04:08 PM Mountain  |   05:08 PM Central  |   06:08 PM Eastern

 

ADVISORIES

FORECASTS

FORECASTS

OBSERVATIONS

USER TOOLS

ABOUT US